Main page
METAR-TAF:

Airports :

Brussels, Belgium

Brussels Airport

latitude: 50-54N, longitude: 004-32E, elevation: 55 m

Current weather observation

The report was made 43 minutes ago, at 12:20 UTC
Wind 9 kt from the North/Northwest, varying between Northwest and North
Temperature 10°C
Humidity 62%
Pressure 1019 hPa
Visibility 10 km or more
Scattered clouds at a height of 4200 ft

METAR: EBBR 301220Z 34009KT 310V010 9999 SCT042 10/03 Q1019 NOSIG

Time: 15:03 (13:03 UTC)

Forecast

The report was made 2 hours and 3 minutes ago, at 11:00 UTC
Forecast valid from 30 at 12 UTC to 01 at 18 UTC
Wind 8 kt from the North
Visibility 10 km or more
Few clouds at a height of 2000 ft
Scattered clouds at a height of 4000 ft
Probability 30% :
Temporary
from 30 at 13 UTC to 30 at 19 UTC
Visibility: 4000 m
Broken clouds at a height of 1200 ft
Scattered clouds at a height of 1500 ft, Towering cumulus.
rain showers

TAF: EBBR 301100Z 3012/0118 36008KT 9999 FEW020 SCT040 PROB30 TEMPO 3013/3019 4000 SHRA BKN012 SCT015TCU

METAR-TAF

Weather observations and forecasts of more than 4000 airports (METAR and TAF reports).

The available stations are represented by yellow and red dots on the map.

Hover mouse over dot to see the name of the station.

Then click to see weather observations and forecasts.

To change the map : click on the green buttons with a black cross to zoom in, on the green button with a dash to zoom out, or on the green arrows for adjacent maps.


METAR-TAF: